Time;durP1;ratioP1;P1;durP2;ratioP2;P2;SDS_P1;SDS_P2;PMS_P1;PMS_P2;Temp;Humidity;BMP_temperature;BMP_pressure;BME280_temperature;BME280_humidity;BME280_pressure;Samples;Min_cycle;Max_cycle;Signal;HPM_P1;HPM_P2
2022/05/06 09:17:47;;;;;;;19.10;10.02;;;20.00;66.50;;;;;;5019360;28;20045;-75
2022/05/06 09:20:22;;;;;;;18.38;9.95;;;20.00;67.10;;;;;;5020694;28;20038;-76
2022/05/06 09:22:51;;;;;;;16.70;9.73;;;20.00;65.10;;;;;;5025781;28;20034;-79
2022/05/06 09:25:42;;;;;;;15.90;8.67;;;20.10;63.90;;;;;;5035465;28;20400;-78
2022/05/06 09:28:29;;;;;;;17.15;9.02;;;20.10;64.30;;;;;;5056036;28;20025;-74
2022/05/06 09:31:07;;;;;;;15.88;9.38;;;20.30;63.20;;;;;;5017049;28;20034;-76
2022/05/06 09:33:41;;;;;;;13.93;8.50;;;20.40;64.10;;;;;;5015000;28;20480;-78
2022/05/06 09:36:29;;;;;;;16.50;7.80;;;20.40;63.80;;;;;;5019170;28;20415;-77
2022/05/06 09:39:02;;;;;;;17.40;9.48;;;20.60;62.70;;;;;;5025177;28;20021;-77
2022/05/06 09:41:28;;;;;;;17.90;9.50;;;20.60;63.00;;;;;;5025282;28;20025;-78
2022/05/06 09:44:02;;;;;;;13.80;8.50;;;20.80;64.30;;;;;;5053734;28;20033;-75
2022/05/06 09:46:28;;;;;;;17.25;9.20;;;21.00;63.60;;;;;;5018199;28;20056;-78
2022/05/06 09:48:58;;;;;;;12.95;7.45;;;20.90;60.80;;;;;;5023430;28;20061;-73
2022/05/06 09:51:28;;;;;;;13.10;6.35;;;20.90;60.30;;;;;;5016991;28;20026;-78
2022/05/06 09:53:56;;;;;;;11.73;7.32;;;20.90;57.90;;;;;;5048367;28;20088;-74
2022/05/06 09:56:22;;;;;;;9.02;4.60;;;21.10;59.10;;;;;;5018224;28;20022;-72
2022/05/06 09:58:51;;;;;;;14.95;5.97;;;21.10;54.50;;;;;;5024880;28;20036;-75
2022/05/06 10:01:17;;;;;;;14.48;7.47;;;21.10;54.50;;;;;;5051533;28;20508;-74
2022/05/06 10:03:43;;;;;;;13.02;6.47;;;21.10;58.40;;;;;;5020909;28;20056;-78
2022/05/06 10:06:10;;;;;;;15.07;8.40;;;21.10;57.40;;;;;;5046290;28;20059;-78
2022/05/06 10:08:46;;;;;;;10.68;5.93;;;21.20;59.90;;;;;;5025028;28;20022;-79
2022/05/06 10:11:14;;;;;;;7.35;3.90;;;21.40;55.70;;;;;;5022539;28;20049;-76
2022/05/06 10:13:43;;;;;;;11.77;7.10;;;21.40;51.50;;;;;;5025058;28;20042;-77
2022/05/06 10:16:10;;;;;;;13.57;6.15;;;21.40;55.40;;;;;;5031736;28;20052;-78
2022/05/06 10:18:41;;;;;;;13.50;8.07;;;21.40;55.50;;;;;;5015722;28;20064;-77
2022/05/06 10:21:14;;;;;;;12.95;6.63;;;21.60;57.50;;;;;;5021178;28;20026;-77
2022/05/06 10:23:52;;;;;;;14.32;7.40;;;21.70;58.20;;;;;;5006279;28;20049;-79
2022/05/06 10:26:45;;;;;;;15.00;7.20;;;21.90;57.60;;;;;;5026515;28;20033;-76
2022/05/06 10:32:25;;;;;;;9.85;5.00;;;22.10;53.50;;;;;;5011868;28;20044;-76
2022/05/06 10:35:04;;;;;;;13.48;5.90;;;22.00;52.40;;;;;;5011463;28;20052;-74
2022/05/06 10:37:38;;;;;;;10.57;5.32;;;22.00;52.90;;;;;;5011368;28;20022;-79
2022/05/06 10:40:22;;;;;;;10.43;5.15;;;22.10;51.30;;;;;;5020529;28;20073;-76
2022/05/06 10:42:48;;;;;;;9.52;4.63;;;22.20;50.40;;;;;;4991803;28;20053;-76
2022/05/06 10:45:36;;;;;;;10.77;5.47;;;22.10;52.30;;;;;;4991726;28;20460;-77
2022/05/06 10:48:17;;;;;;;10.05;4.72;;;22.20;53.00;;;;;;4992243;28;20037;-74
2022/05/06 10:50:43;;;;;;;10.10;5.10;;;22.30;50.30;;;;;;4992522;28;20129;-78
2022/05/06 10:53:32;;;;;;;11.73;5.05;;;22.30;51.90;;;;;;4991377;28;20454;-79
2022/05/06 10:55:57;;;;;;;12.75;5.70;;;22.40;50.50;;;;;;4991802;28;20676;-77
2022/05/06 10:58:23;;;;;;;8.70;4.80;;;22.50;51.60;;;;;;4991544;28;20069;-80
2022/05/06 11:00:48;;;;;;;9.23;4.53;;;22.80;49.30;;;;;;4991430;28;20033;-76
2022/05/06 11:03:17;;;;;;;8.20;4.30;;;23.00;50.60;;;;;;4991368;28;20114;-75
2022/05/06 11:05:43;;;;;;;10.75;5.97;;;23.00;46.90;;;;;;4991695;28;20052;-82
2022/05/06 11:08:09;;;;;;;12.73;5.60;;;23.30;49.30;;;;;;4991556;28;20034;-80
2022/05/06 11:10:35;;;;;;;14.32;5.43;;;23.70;51.80;;;;;;4991795;28;20057;-77
2022/05/06 11:13:06;;;;;;;9.60;5.55;;;24.30;46.50;;;;;;4992086;28;20384;-76
2022/05/06 11:15:32;;;;;;;11.32;6.05;;;24.90;46.20;;;;;;4991082;28;20110;-79
2022/05/06 11:18:06;;;;;;;13.65;5.93;;;24.50;46.50;;;;;;4989899;28;20022;-77
2022/05/06 11:20:35;;;;;;;11.95;6.15;;;23.90;49.40;;;;;;4991288;28;20038;-78
2022/05/06 11:23:11;;;;;;;11.60;6.43;;;23.20;49.30;;;;;;4990946;28;20034;-78
2022/05/06 11:25:43;;;;;;;11.18;5.65;;;23.00;50.20;;;;;;4989348;28;20606;-78
2022/05/06 11:28:13;;;;;;;10.77;5.85;;;22.60;50.80;;;;;;4990760;28;20034;-85
2022/05/06 11:30:43;;;;;;;10.07;5.50;;;22.20;50.80;;;;;;4990640;28;20038;-75
2022/05/06 11:33:28;;;;;;;14.02;4.63;;;22.00;51.20;;;;;;4988875;28;20066;-78
2022/05/06 11:36:05;;;;;;;8.43;4.18;;;22.00;49.50;;;;;;4990179;28;20504;-80
2022/05/06 11:38:35;;;;;;;10.35;2.97;;;22.20;50.70;;;;;;4990921;28;20420;-77
2022/05/06 11:41:11;;;;;;;5.35;2.17;;;22.50;46.00;;;;;;4991195;28;20081;-77
2022/05/06 11:43:39;;;;;;;6.88;2.58;;;22.50;44.50;;;;;;4989878;28;20033;-77
2022/05/06 11:48:49;;;;;;;7.25;3.10;;;22.50;46.40;;;;;;5010460;28;20614;-81
2022/05/06 11:51:22;;;;;;;6.57;3.13;;;22.70;44.60;;;;;;5025707;28;20034;-76
2022/05/06 11:53:49;;;;;;;8.02;3.40;;;22.60;46.50;;;;;;5009678;28;20099;-77
2022/05/06 11:56:23;;;;;;;5.78;2.90;;;22.90;41.90;;;;;;5010046;28;20030;-79
2022/05/06 11:58:51;;;;;;;6.60;3.17;;;22.80;41.00;;;;;;5010443;28;20022;-77
2022/05/06 12:01:34;;;;;;;6.25;3.10;;;23.00;43.10;;;;;;5010593;28;20113;-77
2022/05/06 12:04:04;;;;;;;7.95;3.35;;;23.20;43.40;;;;;;5009906;28;20038;-77
2022/05/06 12:06:32;;;;;;;7.78;4.00;;;23.40;44.30;;;;;;5010376;28;20053;-76
2022/05/06 12:09:13;;;;;;;9.68;4.10;;;23.30;44.20;;;;;;5010040;28;20033;-77
2022/05/06 12:11:40;;;;;;;6.97;2.33;;;23.00;41.90;;;;;;5024750;28;20400;-76
2022/05/06 12:14:08;;;;;;;6.20;2.88;;;23.00;39.70;;;;;;5008623;28;20029;-75
2022/05/06 12:16:34;;;;;;;6.00;3.10;;;22.80;40.10;;;;;;5009597;28;20060;-78
2022/05/06 12:19:00;;;;;;;7.07;3.22;;;23.30;38.30;;;;;;5024765;28;20137;-79
2022/05/06 12:21:27;;;;;;;7.43;3.45;;;23.50;40.90;;;;;;5024771;28;20042;-82
2022/05/06 12:24:00;;;;;;;8.70;4.50;;;23.90;40.70;;;;;;5009311;28;20384;-77
2022/05/06 12:26:37;;;;;;;8.45;5.03;;;24.90;41.30;;;;;;5009239;28;20034;-79
2022/05/06 12:29:20;;;;;;;8.07;4.70;;;26.10;38.00;;;;;;5024494;28;20657;-79
2022/05/06 12:31:46;;;;;;;8.80;5.75;;;27.30;36.70;;;;;;4996111;28;20027;-81
2022/05/06 12:34:12;;;;;;;8.43;5.10;;;27.80;34.90;;;;;;4990075;28;20061;-78
2022/05/06 12:36:38;;;;;;;11.27;5.85;;;26.90;35.30;;;;;;4989669;28;20031;-80
2022/05/06 12:39:17;;;;;;;9.60;5.50;;;26.40;36.20;;;;;;4989534;28;20026;-80
2022/05/06 12:41:43;;;;;;;8.52;6.03;;;24.50;38.00;;;;;;4989466;28;20041;-77
2022/05/06 12:44:17;;;;;;;10.23;6.35;;;23.50;41.90;;;;;;4989345;28;20030;-79
2022/05/06 12:46:42;;;;;;;10.95;7.78;;;22.70;45.10;;;;;;4989150;28;20026;-78
2022/05/06 12:51:52;;;;;;;10.30;6.90;;;22.80;44.90;;;;;;4989402;28;20089;-79
2022/05/06 12:54:18;;;;;;;10.70;7.50;;;23.10;45.10;;;;;;4989237;28;20034;-79
2022/05/06 12:56:44;;;;;;;8.80;4.80;;;23.30;46.70;;;;;;4988953;28;20038;-82
2022/05/06 12:59:10;;;;;;;12.38;5.82;;;23.70;43.00;;;;;;5004254;28;20382;-78
2022/05/06 13:01:36;;;;;;;11.25;6.55;;;23.40;43.50;;;;;;4989343;28;20037;-80
2022/05/06 13:04:02;;;;;;;11.50;6.60;;;23.00;46.30;;;;;;4989194;28;20026;-75
2022/05/06 13:06:32;;;;;;;10.57;6.95;;;22.80;47.00;;;;;;4987932;28;20041;-78
2022/05/06 13:08:58;;;;;;;12.60;7.32;;;22.40;48.90;;;;;;4989085;28;20022;-79
2022/05/06 13:11:23;;;;;;;12.05;7.40;;;22.30;50.80;;;;;;4987448;28;20047;-77
2022/05/06 13:13:49;;;;;;;13.32;6.72;;;22.20;50.60;;;;;;5004256;28;20133;-77
2022/05/06 13:16:14;;;;;;;10.90;7.07;;;22.90;49.60;;;;;;4989123;28;20427;-79
2022/05/06 13:18:41;;;;;;;12.90;7.75;;;23.50;47.70;;;;;;4989326;28;20030;-78
2022/05/06 13:21:07;;;;;;;13.05;7.60;;;23.40;49.60;;;;;;4987512;28;20065;-80
2022/05/06 13:23:32;;;;;;;10.13;6.28;;;22.70;50.10;;;;;;4988945;28;20048;-77
2022/05/06 13:25:58;;;;;;;9.43;6.55;;;22.10;52.30;;;;;;4989024;28;20053;-77
2022/05/06 13:28:24;;;;;;;10.88;6.25;;;21.80;51.70;;;;;;4989121;28;20110;-78
2022/05/06 13:30:49;;;;;;;10.45;6.40;;;21.70;52.50;;;;;;4987468;28;20046;-79
2022/05/06 13:33:15;;;;;;;10.15;6.40;;;21.80;51.40;;;;;;4988875;28;20027;-80
2022/05/06 13:35:43;;;;;;;10.43;6.07;;;21.80;51.90;;;;;;4988902;28;20621;-78
2022/05/06 13:38:09;;;;;;;11.73;6.40;;;21.90;52.40;;;;;;4987326;28;20030;-79
2022/05/06 13:40:34;;;;;;;9.38;5.70;;;21.60;53.20;;;;;;4987291;28;20681;-76
2022/05/06 13:43:00;;;;;;;12.15;7.20;;;21.60;51.10;;;;;;5003754;28;20042;-79
2022/05/06 13:45:25;;;;;;;11.35;7.20;;;21.40;52.90;;;;;;4987418;28;20034;-87
2022/05/06 13:47:51;;;;;;;13.15;7.32;;;21.30;56.00;;;;;;4987321;28;20038;-76
2022/05/06 13:50:17;;;;;;;12.02;7.45;;;21.20;56.10;;;;;;4988625;28;20112;-77
2022/05/06 13:52:42;;;;;;;14.20;7.20;;;21.10;56.00;;;;;;4992201;28;20476;-77
2022/05/06 13:55:09;;;;;;;14.00;7.45;;;21.10;56.40;;;;;;5008010;28;20450;-79
2022/05/06 14:00:21;;;;;;;11.85;7.60;;;21.00;55.60;;;;;;5012184;28;20096;-76
2022/05/06 14:02:47;;;;;;;11.43;6.78;;;20.90;56.80;;;;;;5012289;28;20068;-76
2022/05/06 14:05:13;;;;;;;11.60;6.18;;;20.80;56.90;;;;;;5011966;28;20061;-77
2022/05/06 14:07:39;;;;;;;11.27;6.10;;;20.90;54.90;;;;;;5011887;28;20436;-79
2022/05/06 14:10:05;;;;;;;14.05;6.43;;;21.00;53.40;;;;;;5026987;28;20156;-82
2022/05/06 14:12:32;;;;;;;9.98;6.03;;;21.00;53.60;;;;;;5011346;28;20036;-79
2022/05/06 14:14:59;;;;;;;9.93;6.72;;;21.00;53.20;;;;;;5037562;28;20026;-80
2022/05/06 14:17:24;;;;;;;11.13;6.95;;;21.20;53.90;;;;;;5009637;28;20037;-81
2022/05/06 14:19:53;;;;;;;12.43;7.10;;;21.40;53.60;;;;;;5010455;28;20026;-79
2022/05/06 14:22:22;;;;;;;13.18;7.32;;;21.70;53.60;;;;;;5032317;28;20061;-77
2022/05/06 14:24:48;;;;;;;14.50;7.50;;;21.90;52.80;;;;;;4997394;28;20030;-78
2022/05/06 14:27:15;;;;;;;11.48;7.60;;;21.80;52.90;;;;;;5011022;28;20045;-81
2022/05/06 14:29:41;;;;;;;13.68;8.70;;;21.70;53.50;;;;;;5009600;28;20037;-79
2022/05/06 14:32:08;;;;;;;13.80;8.02;;;21.40;54.40;;;;;;5007625;28;20034;-77
2022/05/06 14:34:34;;;;;;;13.95;8.55;;;21.00;54.40;;;;;;5021328;28;20053;-78
2022/05/06 14:37:00;;;;;;;15.35;8.90;;;20.90;56.60;;;;;;5027688;28;20396;-80
2022/05/06 14:39:26;;;;;;;13.70;8.45;;;20.80;56.00;;;;;;4999863;28;20026;-80
2022/05/06 14:41:51;;;;;;;14.98;7.90;;;20.70;56.80;;;;;;5031261;28;20026;-80
2022/05/06 14:44:17;;;;;;;13.45;7.78;;;20.70;56.20;;;;;;5025581;28;20041;-80
2022/05/06 14:46:43;;;;;;;11.25;7.78;;;20.70;55.00;;;;;;5008543;28;20038;-78
2022/05/06 14:49:08;;;;;;;12.25;7.90;;;20.70;55.70;;;;;;5009144;28;20038;-81
2022/05/06 14:51:34;;;;;;;11.90;6.82;;;20.70;55.90;;;;;;5005419;28;20056;-80
2022/05/06 14:54:01;;;;;;;13.95;8.05;;;20.70;54.90;;;;;;5006392;28;20129;-80
2022/05/06 14:56:27;;;;;;;12.45;7.72;;;20.30;55.70;;;;;;5008184;28;20472;-79
2022/05/06 14:58:52;;;;;;;13.60;8.18;;;20.00;57.00;;;;;;5010042;28;20040;-78
2022/05/06 15:01:18;;;;;;;15.90;8.20;;;20.00;58.80;;;;;;5017194;28;20057;-78
2022/05/06 15:03:43;;;;;;;13.35;8.35;;;20.10;57.50;;;;;;5005635;28;20057;-78
2022/05/06 15:06:09;;;;;;;12.75;7.60;;;20.10;57.30;;;;;;5024977;28;20034;-80
2022/05/06 15:08:35;;;;;;;15.93;8.35;;;20.10;56.50;;;;;;5025748;28;20099;-81
2022/05/06 15:11:01;;;;;;;15.85;8.43;;;20.00;56.80;;;;;;5008884;28;20112;-80
2022/05/06 15:13:29;;;;;;;13.98;8.50;;;19.80;56.80;;;;;;5002699;28;20491;-82
2022/05/06 15:15:59;;;;;;;13.13;9.13;;;19.90;57.30;;;;;;5007249;28;20056;-84
2022/05/06 15:19:27;;;;;;;14.30;9.82;;;19.70;58.00;;;;;;5008221;28;20641;-77
2022/05/06 15:21:20;;;;;;;15.90;9.52;;;19.50;58.20;;;;;;5006139;28;20033;-79
2022/05/06 15:23:47;;;;;;;15.35;9.38;;;19.10;60.80;;;;;;5021359;28;20084;-79
2022/05/06 15:26:16;;;;;;;14.48;8.75;;;19.00;61.40;;;;;;5005733;28;20030;-78
2022/05/06 15:28:43;;;;;;;16.52;8.27;;;19.00;61.40;;;;;;5026524;28;20536;-80
2022/05/06 15:31:10;;;;;;;14.63;8.68;;;19.00;62.20;;;;;;5003855;28;20045;-78
2022/05/06 15:33:36;;;;;;;14.63;8.00;;;19.10;61.00;;;;;;5009827;28;20570;-83
2022/05/06 15:36:01;;;;;;;15.48;7.43;;;19.10;61.30;;;;;;5007872;28;20030;-79
2022/05/06 15:38:30;;;;;;;16.08;7.43;;;19.00;60.80;;;;;;5004555;28;20092;-80
2022/05/06 15:40:56;;;;;;;16.08;7.50;;;19.10;61.30;;;;;;5009546;28;20357;-77
2022/05/06 15:43:21;;;;;;;14.98;7.85;;;19.40;61.00;;;;;;4995921;28;20496;-74
2022/05/06 15:45:47;;;;;;;12.10;7.18;;;19.50;59.10;;;;;;5005630;28;20278;-80
2022/05/06 15:48:13;;;;;;;13.90;7.60;;;19.40;59.90;;;;;;5008703;28;20034;-82
2022/05/06 15:50:41;;;;;;;12.60;7.35;;;19.40;60.20;;;;;;5007705;28;20033;-80
2022/05/06 15:53:07;;;;;;;16.20;8.57;;;19.10;60.60;;;;;;5002690;28;20040;-80
2022/05/06 15:55:33;;;;;;;16.33;8.60;;;18.80;62.00;;;;;;5007029;28;20034;-82
2022/05/06 15:57:58;;;;;;;16.83;8.20;;;18.50;63.20;;;;;;5001363;28;20037;-81
2022/05/06 16:00:24;;;;;;;14.10;8.70;;;18.30;63.20;;;;;;5006102;28;20037;-78
2022/05/06 16:02:50;;;;;;;16.13;8.93;;;18.10;63.50;;;;;;5007100;28;20025;-84
2022/05/06 16:05:16;;;;;;;14.88;9.02;;;17.90;64.00;;;;;;5002962;28;20036;-79
2022/05/06 16:07:42;;;;;;;14.75;8.20;;;17.70;65.00;;;;;;5006369;28;20030;-79
2022/05/06 16:10:09;;;;;;;15.13;8.27;;;17.60;65.50;;;;;;5006579;28;20042;-78
2022/05/06 16:12:35;;;;;;;14.55;8.20;;;17.30;65.90;;;;;;5007641;28;20026;-78
2022/05/06 16:15:25;;;;;;;15.93;8.50;;;17.20;67.20;;;;;;5009266;28;20079;-80
2022/05/06 16:17:55;;;;;;;15.25;8.82;;;17.10;67.60;;;;;;5024023;28;20054;-79
2022/05/06 16:20:25;;;;;;;17.13;9.00;;;17.10;68.50;;;;;;5005179;28;20026;-80
2022/05/06 16:22:55;;;;;;;19.83;8.88;;;17.10;68.70;;;;;;5006863;28;20049;-79
2022/05/06 16:25:21;;;;;;;15.52;7.68;;;17.00;68.80;;;;;;5009376;28;20030;-78
2022/05/06 16:27:48;;;;;;;15.32;7.22;;;17.00;69.10;;;;;;5005730;28;20079;-79
2022/05/06 16:30:15;;;;;;;13.57;7.40;;;17.10;68.90;;;;;;5001121;28;20539;-75
2022/05/06 16:32:41;;;;;;;12.63;6.82;;;17.00;69.40;;;;;;5000886;28;20676;-76
2022/05/06 16:37:53;;;;;;;13.50;6.82;;;16.90;69.40;;;;;;5007563;28;20056;-75
2022/05/06 16:40:19;;;;;;;12.50;7.65;;;16.80;69.10;;;;;;5004496;28;20061;-78
2022/05/06 16:42:45;;;;;;;18.13;8.45;;;16.60;69.70;;;;;;4997477;28;20031;-76
2022/05/06 16:45:14;;;;;;;13.88;8.20;;;16.60;69.80;;;;;;5004680;28;20037;-77
2022/05/06 16:47:41;;;;;;;14.18;7.63;;;16.50;70.50;;;;;;5005875;28;20072;-77
2022/05/06 16:50:09;;;;;;;14.73;7.85;;;16.40;70.50;;;;;;5005643;28;20030;-76
2022/05/06 16:52:35;;;;;;;12.23;7.32;;;16.40;70.00;;;;;;5011395;28;20034;-76
2022/05/06 16:55:01;;;;;;;12.50;7.13;;;16.30;71.00;;;;;;5000139;28;20387;-76
2022/05/06 16:57:27;;;;;;;15.57;7.75;;;16.20;71.00;;;;;;5000423;28;20441;-76
2022/05/06 16:59:52;;;;;;;15.38;7.40;;;16.20;71.30;;;;;;4999564;28;20026;-77
2022/05/06 17:02:18;;;;;;;14.88;8.05;;;16.10;72.30;;;;;;4996441;28;20096;-77
2022/05/06 17:04:44;;;;;;;16.05;8.02;;;16.00;72.60;;;;;;5000134;28;20136;-77
2022/05/06 17:07:10;;;;;;;15.60;8.65;;;15.90;72.90;;;;;;5001176;28;20108;-77
2022/05/06 17:09:35;;;;;;;15.10;8.57;;;15.80;72.80;;;;;;4998603;28;20050;-79
2022/05/06 17:12:02;;;;;;;17.85;8.52;;;15.80;73.60;;;;;;5000905;28;20120;-77
2022/05/06 17:14:28;;;;;;;18.77;8.77;;;15.70;74.20;;;;;;5000470;28;20038;-76
2022/05/06 17:16:54;;;;;;;15.40;8.65;;;15.60;74.80;;;;;;5001522;28;20042;-76
2022/05/06 17:19:20;;;;;;;15.68;8.15;;;15.70;74.10;;;;;;5004784;28;20418;-76
2022/05/06 17:21:46;;;;;;;15.88;8.45;;;15.70;74.40;;;;;;5006846;28;20405;-80
2022/05/06 17:24:12;;;;;;;18.95;8.57;;;15.60;74.40;;;;;;5002389;28;20042;-80
2022/05/06 17:26:38;;;;;;;16.80;8.73;;;15.50;73.90;;;;;;5005898;28;20480;-75
2022/05/06 17:29:04;;;;;;;18.60;8.27;;;15.40;74.30;;;;;;5020559;28;20065;-80
2022/05/06 17:31:40;;;;;;;18.95;8.63;;;15.30;74.60;;;;;;5001519;28;20041;-76
2022/05/06 17:34:06;;;;;;;14.20;8.88;;;15.30;74.80;;;;;;5007239;28;20026;-76
2022/05/06 17:36:33;;;;;;;18.48;8.45;;;15.30;75.50;;;;;;5025439;28;20030;-80
2022/05/06 17:39:00;;;;;;;15.88;7.82;;;15.30;75.30;;;;;;5042482;28;20029;-77
2022/05/06 17:41:26;;;;;;;16.00;8.43;;;15.30;75.30;;;;;;5005782;28;20505;-77
2022/05/06 17:43:52;;;;;;;14.88;7.65;;;15.30;75.60;;;;;;5007343;28;20738;-76
2022/05/06 17:46:19;;;;;;;21.10;9.65;;;15.20;75.60;;;;;;5008770;28;20096;-76
2022/05/06 17:48:46;;;;;;;15.90;9.40;;;15.20;75.90;;;;;;5005989;28;20105;-77
2022/05/06 17:51:13;;;;;;;17.92;10.10;;;15.20;76.40;;;;;;5011508;28;20135;-76
2022/05/06 17:53:40;;;;;;;13.65;8.43;;;15.20;76.70;;;;;;5012138;28;20480;-76
2022/05/06 17:56:06;;;;;;;19.42;8.88;;;15.10;76.90;;;;;;5011905;28;20105;-79
2022/05/06 17:58:32;;;;;;;15.55;8.93;;;15.00;77.50;;;;;;5041392;28;20145;-76
2022/05/06 18:01:15;;;;;;;15.70;8.80;;;15.00;77.80;;;;;;5011535;28;20479;-76
2022/05/06 18:03:49;;;;;;;18.83;8.90;;;15.00;78.20;;;;;;5011945;28;20034;-77
2022/05/06 18:06:16;;;;;;;17.70;9.57;;;14.90;78.70;;;;;;5007655;28;20033;-77
2022/05/06 18:08:46;;;;;;;18.05;9.65;;;14.80;78.90;;;;;;5011092;28;20022;-76
2022/05/06 18:11:12;;;;;;;18.10;9.05;;;14.80;79.30;;;;;;5025773;28;20069;-76
2022/05/06 18:13:39;;;;;;;18.75;8.95;;;14.80;79.70;;;;;;5025530;28;20383;-76
2022/05/06 18:16:06;;;;;;;21.17;8.65;;;14.80;79.80;;;;;;5011404;28;20383;-76
2022/05/06 18:18:33;;;;;;;20.00;9.38;;;14.70;80.30;;;;;;5008942;28;20102;-75
2022/05/06 18:20:59;;;;;;;20.40;9.70;;;14.60;80.40;;;;;;5006347;28;20033;-76
2022/05/06 18:23:29;;;;;;;20.10;8.93;;;14.60;80.90;;;;;;5005297;28;20460;-76
2022/05/06 18:25:56;;;;;;;20.02;9.27;;;14.60;81.00;;;;;;5001164;28;20084;-76
2022/05/06 18:28:21;;;;;;;17.13;9.43;;;14.60;81.50;;;;;;5007522;28;20025;-78
2022/05/06 18:30:47;;;;;;;17.83;8.48;;;14.60;81.30;;;;;;5022807;28;20100;-77
2022/05/06 18:33:19;;;;;;;17.58;8.43;;;14.50;81.70;;;;;;4997063;28;20042;-77
2022/05/06 18:35:46;;;;;;;19.88;8.43;;;14.50;82.00;;;;;;5001641;28;20042;-77
2022/05/06 18:38:12;;;;;;;22.98;8.52;;;14.40;82.30;;;;;;5007705;28;20069;-76
2022/05/06 18:40:38;;;;;;;18.48;8.05;;;14.30;82.80;;;;;;5000282;28;20033;-77
2022/05/06 18:43:04;;;;;;;16.92;8.30;;;14.30;83.20;;;;;;5003265;28;20373;-76
2022/05/06 18:45:30;;;;;;;15.93;7.70;;;14.30;83.50;;;;;;5003198;28;20033;-76
2022/05/06 18:47:55;;;;;;;16.88;7.85;;;14.20;83.60;;;;;;5007498;28;20042;-76
2022/05/06 18:50:21;;;;;;;20.05;8.35;;;14.30;83.50;;;;;;5003494;28;20076;-76
2022/05/06 18:52:47;;;;;;;18.70;8.57;;;14.20;83.70;;;;;;5004917;28;20037;-76
2022/05/06 18:55:12;;;;;;;17.42;8.38;;;14.20;83.90;;;;;;4995053;28;20420;-78
2022/05/06 18:57:38;;;;;;;17.38;8.00;;;14.20;84.10;;;;;;5006061;28;20030;-76
2022/05/06 19:00:08;;;;;;;20.63;9.43;;;14.20;84.20;;;;;;5006755;28;20044;-77
2022/05/06 19:02:34;;;;;;;;;;;14.20;84.40;;;;;;5007158;28;20034;-79
2022/05/06 19:05:01;;;;;;;16.40;8.68;;;14.20;84.60;;;;;;5009470;28;19916;-77
2022/05/06 19:07:27;;;;;;;16.45;7.63;;;14.20;84.70;;;;;;5007211;28;20028;-77
2022/05/06 19:09:52;;;;;;;21.40;8.90;;;14.20;84.60;;;;;;5008465;28;20022;-76
2022/05/06 19:12:19;;;;;;;16.48;8.32;;;14.30;84.80;;;;;;5008359;28;20060;-76
2022/05/06 19:14:44;;;;;;;16.60;7.78;;;14.20;84.80;;;;;;5035279;28;20480;-75
2022/05/06 19:17:10;;;;;;;17.38;8.60;;;14.20;84.90;;;;;;5003092;28;20040;-77
2022/05/06 19:19:37;;;;;;;17.25;8.48;;;14.20;84.90;;;;;;5009147;28;20026;-77
2022/05/06 19:24:53;;;;;;;20.90;8.63;;;14.30;84.90;;;;;;5016171;28;20432;-76
2022/05/06 19:27:21;;;;;;;17.60;8.07;;;14.30;85.00;;;;;;5005272;28;20030;-78
2022/05/06 19:29:48;;;;;;;20.27;8.38;;;14.30;85.80;;;;;;5009162;28;20026;-78
2022/05/06 19:32:14;;;;;;;18.90;8.82;;;14.30;85.40;;;;;;5037443;28;20073;-77
2022/05/06 19:34:44;;;;;;;18.45;8.52;;;14.20;85.40;;;;;;5008107;28;20117;-78
2022/05/06 19:37:11;;;;;;;15.43;8.77;;;14.20;85.70;;;;;;5002780;28;20034;-75
2022/05/06 19:39:36;;;;;;;16.48;8.02;;;14.30;85.80;;;;;;4999963;28;20061;-77
2022/05/06 19:42:03;;;;;;;15.07;8.25;;;14.20;85.80;;;;;;5008804;28;20088;-78
2022/05/06 19:44:29;;;;;;;15.57;8.57;;;14.20;86.00;;;;;;5012676;28;20029;-77
2022/05/06 19:46:54;;;;;;;18.98;8.75;;;14.20;85.90;;;;;;5001864;28;20034;-77
2022/05/06 19:49:20;;;;;;;16.63;8.77;;;14.10;86.30;;;;;;5009791;28;20041;-76
2022/05/06 19:54:32;;;;;;;17.02;9.10;;;14.20;86.40;;;;;;5007235;28;20491;-76
2022/05/06 19:57:01;;;;;;;15.50;8.60;;;14.20;86.30;;;;;;5005816;28;20456;-76
2022/05/06 19:59:27;;;;;;;15.32;8.40;;;14.20;86.10;;;;;;5007727;28;20041;-76
2022/05/06 20:01:53;;;;;;;15.57;9.05;;;14.20;85.90;;;;;;5009727;28;20042;-76
2022/05/06 20:04:23;;;;;;;18.52;9.45;;;14.20;85.90;;;;;;5008702;28;20061;-76
2022/05/06 20:06:50;;;;;;;18.58;9.50;;;14.20;86.00;;;;;;5006051;28;20060;-76
2022/05/06 20:09:15;;;;;;;13.80;7.40;;;14.20;86.20;;;;;;5031709;28;20037;-76
2022/05/06 20:11:45;;;;;;;15.68;9.10;;;14.20;86.00;;;;;;5003120;28;20049;-77
2022/05/06 20:14:11;;;;;;;17.73;8.90;;;14.20;86.20;;;;;;4998892;28;20806;-77
2022/05/06 20:16:38;;;;;;;18.45;9.77;;;14.10;86.80;;;;;;4998795;28;20751;-76
2022/05/06 20:19:04;;;;;;;17.42;9.57;;;14.00;86.70;;;;;;4999372;28;20030;-76
2022/05/06 20:21:29;;;;;;;18.20;9.43;;;14.00;87.60;;;;;;5021461;28;20416;-75
2022/05/06 20:23:55;;;;;;;15.93;9.05;;;13.90;87.10;;;;;;5006003;28;20033;-76
2022/05/06 20:26:23;;;;;;;14.30;8.63;;;13.90;87.30;;;;;;5007726;28;20384;-76
2022/05/06 20:28:49;;;;;;;14.23;7.78;;;14.00;87.30;;;;;;5022279;28;20037;-76
2022/05/06 20:31:15;;;;;;;10.93;6.88;;;14.00;86.90;;;;;;5008223;28;20503;-76
2022/05/06 20:33:41;;;;;;;10.98;6.50;;;14.00;86.90;;;;;;5004241;28;20026;-76
2022/05/06 20:36:08;;;;;;;9.40;5.55;;;14.00;86.20;;;;;;5003897;28;20038;-76
2022/05/06 20:38:34;;;;;;;7.75;4.10;;;14.20;85.00;;;;;;5000677;28;20030;-78
2022/05/06 20:41:00;;;;;;;5.93;3.70;;;14.30;83.60;;;;;;5005177;28;20501;-77
2022/05/06 20:43:26;;;;;;;6.07;2.53;;;14.40;82.20;;;;;;5020485;28;20117;-77
2022/05/06 20:45:51;;;;;;;5.20;2.28;;;14.50;80.40;;;;;;5003758;28;20034;-77
2022/05/06 20:48:18;;;;;;;5.00;2.10;;;14.60;79.40;;;;;;5005745;28;20026;-78
2022/05/06 20:50:45;;;;;;;2.55;1.23;;;14.70;78.10;;;;;;5035410;28;20107;-76
2022/05/06 20:53:10;;;;;;;2.45;1.20;;;14.70;77.10;;;;;;5007232;28;20041;-77
2022/05/06 20:55:36;;;;;;;3.65;1.38;;;14.80;76.70;;;;;;5017589;28;20034;-77
2022/05/06 21:00:46;;;;;;;1.33;0.85;;;14.80;75.60;;;;;;4999384;28;20036;-77
2022/05/06 21:03:11;;;;;;;4.07;1.20;;;14.80;75.90;;;;;;5002159;28;20030;-77
2022/05/06 21:05:38;;;;;;;2.25;0.90;;;14.80;75.80;;;;;;5005127;28;20033;-77
2022/05/06 21:13:33;;;;;;;1.50;0.60;;;14.80;74.90;;;;;;5003896;28;20033;-77
2022/05/06 21:16:00;;;;;;;3.38;0.90;;;14.80;74.90;;;;;;5005075;28;20021;-76
2022/05/06 21:18:26;;;;;;;0.98;0.65;;;14.70;74.30;;;;;;5005815;28;20034;-78
2022/05/06 21:20:52;;;;;;;2.17;0.80;;;14.70;74.90;;;;;;5007681;28;20037;-77
2022/05/06 21:23:17;;;;;;;2.75;0.73;;;14.70;75.20;;;;;;5007034;28;20036;-75
2022/05/06 21:25:43;;;;;;;2.15;0.80;;;14.70;74.80;;;;;;5006687;28;20033;-76
2022/05/06 21:28:10;;;;;;;1.63;0.85;;;14.70;74.90;;;;;;5005909;28;20029;-77
2022/05/06 21:30:36;;;;;;;2.03;0.88;;;14.60;74.90;;;;;;5006256;28;20042;-77
2022/05/06 21:33:02;;;;;;;2.38;0.77;;;14.70;74.80;;;;;;5007846;28;20065;-77
2022/05/06 21:35:28;;;;;;;2.80;0.65;;;14.70;75.00;;;;;;5006903;28;20076;-77
2022/05/06 21:37:54;;;;;;;2.28;0.90;;;14.70;74.90;;;;;;5004547;28;20053;-78
2022/05/06 21:40:20;;;;;;;1.70;0.75;;;14.60;74.70;;;;;;5007745;28;20029;-76
2022/05/06 21:42:45;;;;;;;2.13;0.88;;;14.60;75.10;;;;;;5007403;28;20030;-76
2022/05/06 21:45:12;;;;;;;2.95;0.80;;;14.60;75.20;;;;;;5007150;28;20025;-75
2022/05/06 21:47:38;;;;;;;2.47;1.10;;;14.60;75.40;;;;;;5006426;28;20026;-75
2022/05/06 21:50:08;;;;;;;3.63;0.90;;;14.50;75.60;;;;;;5006329;28;20061;-75
2022/05/06 21:52:34;;;;;;;1.95;0.80;;;14.50;75.70;;;;;;5002369;28;20468;-75
2022/05/06 21:54:59;;;;;;;2.58;0.80;;;14.50;75.80;;;;;;5022644;28;20034;-75
2022/05/06 21:57:25;;;;;;;2.25;0.80;;;14.40;75.90;;;;;;5005494;28;20096;-77
2022/05/06 21:59:51;;;;;;;2.58;0.85;;;14.40;76.00;;;;;;5008421;28;20049;-77
2022/05/06 22:02:17;;;;;;;1.80;0.70;;;14.40;76.10;;;;;;5004028;28;20029;-76
2022/05/06 22:04:44;;;;;;;1.98;0.70;;;14.40;76.30;;;;;;5038577;28;20030;-76
2022/05/06 22:07:10;;;;;;;2.33;0.90;;;14.40;76.50;;;;;;5004123;28;20026;-76
2022/05/06 22:09:36;;;;;;;2.03;0.90;;;14.30;76.60;;;;;;5009521;28;20495;-76
2022/05/06 22:12:03;;;;;;;4.15;1.02;;;14.30;76.90;;;;;;5036746;28;20060;-76
2022/05/06 22:14:29;;;;;;;2.08;0.90;;;14.20;77.00;;;;;;5005572;28;20044;-78
2022/05/06 22:16:54;;;;;;;3.13;0.95;;;14.20;77.10;;;;;;5008083;28;20033;-75
2022/05/06 22:19:20;;;;;;;2.85;1.00;;;14.20;77.50;;;;;;5007212;28;20156;-78
2022/05/06 22:21:46;;;;;;;2.15;0.93;;;14.20;77.70;;;;;;5008306;28;20041;-76
2022/05/06 22:24:12;;;;;;;2.03;1.00;;;14.20;77.90;;;;;;5010401;28;20034;-76
2022/05/06 22:26:38;;;;;;;1.58;0.75;;;14.10;77.80;;;;;;5009426;28;20479;-77
2022/05/06 22:29:04;;;;;;;2.22;0.77;;;14.10;78.00;;;;;;5010028;28;20076;-77